Time;durP1;ratioP1;P1;durP2;ratioP2;P2;SDS_P1;SDS_P2;PMS_P1;PMS_P2;Temp;Humidity;BMP_temperature;BMP_pressure;BME280_temperature;BME280_humidity;BME280_pressure;Samples;Min_cycle;Max_cycle;Signal;HPM_P1;HPM_P2
2022/05/01 00:01:01;;;;;;;1.50;1.27;;;;;;;12.63;46.19;102150.50;4947728;28;97360;-84
2022/05/01 00:03:36;;;;;;;1.33;1.23;;;;;;;12.64;46.11;102146.50;4887855;28;97787;-84
2022/05/01 00:06:01;;;;;;;1.17;1.07;;;;;;;12.66;46.26;102155.09;4953240;28;97317;-84
2022/05/01 00:08:27;;;;;;;1.17;0.80;;;;;;;12.69;46.53;102167.16;4886230;28;96609;-84
2022/05/01 00:10:53;;;;;;;1.00;1.00;;;;;;;12.69;46.52;102150.59;4971864;28;97430;-83
2022/05/01 00:13:19;;;;;;;0.80;0.80;;;;;;;12.73;46.34;102173.31;4953437;28;96944;-84
2022/05/01 00:15:45;;;;;;;1.20;1.10;;;;;;;12.72;46.51;102164.25;4970274;28;98348;-85
2022/05/01 00:18:10;;;;;;;1.23;1.17;;;;;;;12.73;46.54;102167.78;4960144;28;96966;-84
2022/05/01 00:20:36;;;;;;;1.47;1.00;;;;;;;12.71;46.72;102164.72;4956095;28;96895;-84
2022/05/01 00:23:02;;;;;;;2.03;1.00;;;;;;;12.74;46.85;102155.47;4891847;28;97896;-85
2022/05/01 00:25:28;;;;;;;0.93;0.93;;;;;;;12.74;46.83;102149.97;4971617;28;99643;-84
2022/05/01 00:27:54;;;;;;;1.53;1.30;;;;;;;12.72;46.78;102153.19;4951195;28;97182;-84
2022/05/01 00:30:20;;;;;;;1.20;1.10;;;;;;;12.71;46.87;102154.41;4957305;28;98646;-85
2022/05/01 00:38:12;;;;;;;1.37;1.27;;;;;;;12.68;46.75;102147.09;4884849;28;96690;-85
2022/05/01 00:40:38;;;;;;;1.43;1.00;;;;;;;12.66;46.92;102148.78;4942340;28;97188;-84
2022/05/01 00:43:04;;;;;;;1.07;1.07;;;;;;;12.62;46.95;102151.72;4953957;28;98603;-84
2022/05/01 00:45:32;;;;;;;1.00;1.00;;;;;;;12.59;47.07;102140.84;4958291;28;99627;-84
2022/05/01 00:47:58;;;;;;;1.73;1.20;;;;;;;12.56;46.88;102144.53;4954914;28;96754;-85
2022/05/01 00:50:24;;;;;;;0.90;0.73;;;;;;;12.54;46.88;102145.03;4955220;28;96890;-84
2022/05/01 00:52:51;;;;;;;1.10;1.10;;;;;;;12.49;47.13;102147.69;4905190;28;98229;-84
2022/05/01 00:55:16;;;;;;;1.17;1.07;;;;;;;12.50;47.17;102154.72;4967714;28;98196;-84
2022/05/01 00:57:45;;;;;;;1.57;1.13;;;;;;;12.50;47.43;102146.44;4888497;28;96912;-84
2022/05/01 01:00:11;;;;;;;1.60;1.20;;;;;;;12.50;47.38;102152.72;4950217;28;97025;-85
2022/05/01 01:02:37;;;;;;;1.63;1.33;;;;;;;12.49;47.28;102155.97;4956632;28;97440;-85
2022/05/01 01:05:03;;;;;;;1.10;1.00;;;;;;;12.51;47.42;102143.22;4954075;28;99068;-84
2022/05/01 01:07:29;;;;;;;1.20;1.20;;;;;;;12.51;47.46;102139.69;4962993;28;97045;-84
2022/05/01 01:09:54;;;;;;;1.80;1.40;;;;;;;12.48;47.35;102154.41;4895828;28;96757;-84
2022/05/01 01:13:05;;;;;;;1.33;1.10;;;;;;;12.51;47.66;102145.97;4969237;28;97566;-86
2022/05/01 01:15:12;;;;;;;1.50;1.40;;;;;;;12.49;47.76;102140.13;4893098;28;97348;-84
2022/05/01 01:17:41;;;;;;;1.97;1.33;;;;;;;12.50;47.76;102149.19;4956475;28;97089;-84
2022/05/01 01:20:17;;;;;;;0.67;0.67;;;;;;;12.51;48.09;102142.44;4954133;28;96910;-84
2022/05/01 01:22:47;;;;;;;1.27;1.20;;;;;;;12.49;47.93;102145.66;4890186;28;97110;-84
2022/05/01 01:25:13;;;;;;;3.10;1.20;;;;;;;12.49;47.52;102144.91;4953264;28;97892;-84
2022/05/01 01:27:40;;;;;;;2.63;1.00;;;;;;;12.49;47.75;102150.44;4936510;28;97164;-84
2022/05/01 01:32:51;;;;;;;2.13;1.13;;;;;;;12.42;47.88;102148.00;4886563;28;97283;-84
2022/05/01 01:35:20;;;;;;;2.80;1.10;;;;;;;12.38;48.01;102155.72;4888652;28;98068;-84
2022/05/01 01:37:46;;;;;;;2.23;0.90;;;;;;;12.41;48.01;102152.00;4888271;28;96965;-84
2022/05/01 01:40:23;;;;;;;3.27;1.10;;;;;;;12.42;48.92;102153.53;4954635;28;98362;-84
2022/05/01 01:42:52;;;;;;;0.93;0.90;;;;;;;12.39;48.34;102158.00;4941505;28;101364;-84
2022/05/01 01:45:18;;;;;;;3.03;1.20;;;;;;;12.38;48.18;102162.00;4957201;28;96986;-86
2022/05/01 01:47:44;;;;;;;4.20;0.93;;;;;;;12.40;48.33;102148.50;4952869;28;97152;-85
2022/05/01 01:50:12;;;;;;;0.80;0.80;;;;;;;12.44;48.47;102148.31;4889119;28;96990;-84
2022/05/01 01:52:37;;;;;;;3.37;1.27;;;;;;;12.43;48.43;102142.03;4951605;28;98031;-84
2022/05/01 01:55:03;;;;;;;5.07;1.03;;;;;;;12.41;48.48;102146.47;4962941;28;97072;-84
2022/05/01 01:57:29;;;;;;;0.90;0.90;;;;;;;12.46;48.65;102156.88;4969247;28;96950;-85
2022/05/01 01:59:55;;;;;;;1.50;1.40;;;;;;;12.44;48.40;102142.78;4951418;28;96888;-84
2022/05/01 02:02:20;;;;;;;2.10;1.40;;;;;;;12.42;48.86;102136.97;4952301;28;98942;-85
2022/05/01 02:04:45;;;;;;;3.33;1.53;;;;;;;12.42;48.80;102161.81;4954215;28;99572;-84
2022/05/01 02:07:11;;;;;;;0.97;0.80;;;;;;;12.39;48.71;102140.66;4953299;28;96920;-84
2022/05/01 02:09:37;;;;;;;1.00;0.90;;;;;;;12.38;48.89;102144.66;4953318;28;97408;-84
2022/05/01 02:12:09;;;;;;;1.57;1.00;;;;;;;12.42;49.19;102140.50;4955611;28;101315;-84
2022/05/01 02:14:35;;;;;;;0.90;0.90;;;;;;;12.41;49.11;102133.44;4952025;28;97080;-84
2022/05/01 02:17:02;;;;;;;6.93;1.23;;;;;;;12.43;49.20;102132.97;4888282;28;96974;-84
2022/05/01 02:19:31;;;;;;;6.10;1.30;;;;;;;12.44;49.17;102154.59;4948725;28;96944;-84
2022/05/01 02:21:57;;;;;;;1.90;1.27;;;;;;;12.44;49.18;102154.59;4948320;28;97023;-85
2022/05/01 02:24:25;;;;;;;1.20;1.10;;;;;;;12.43;49.40;102168.84;4951950;28;97470;-83
2022/05/01 02:26:50;;;;;;;1.70;1.50;;;;;;;12.41;49.21;102144.50;4957024;28;97046;-84
2022/05/01 02:29:16;;;;;;;1.30;1.20;;;;;;;12.39;49.19;102138.66;4888762;28;96668;-84
2022/05/01 02:31:43;;;;;;;1.10;1.10;;;;;;;12.38;49.37;102137.16;4894677;28;97828;-84
2022/05/01 02:34:10;;;;;;;1.43;1.20;;;;;;;12.37;49.33;102138.38;4952886;28;98692;-84
2022/05/01 02:36:36;;;;;;;2.60;1.03;;;;;;;12.35;49.39;102138.09;4952936;28;97038;-84
2022/05/01 02:39:01;;;;;;;4.03;1.03;;;;;;;12.35;49.71;102149.13;4887930;28;96731;-83
2022/05/01 02:41:28;;;;;;;2.53;1.00;;;;;;;12.35;49.52;102140.06;4953967;28;98594;-84
2022/05/01 02:43:54;;;;;;;1.17;1.07;;;;;;;12.30;49.65;102138.72;4952411;28;97032;-84
2022/05/01 02:46:19;;;;;;;1.77;1.30;;;;;;;12.35;49.62;102148.34;4961339;28;96861;-83
2022/05/01 02:48:45;;;;;;;1.90;0.90;;;;;;;12.34;49.86;102149.59;4955577;28;97052;-83
2022/05/01 02:51:10;;;;;;;1.20;1.10;;;;;;;12.33;49.70;102151.59;4888836;28;97225;-83
2022/05/01 02:53:36;;;;;;;1.87;1.13;;;;;;;12.33;49.80;102137.03;4887268;28;96887;-84
2022/05/01 02:56:02;;;;;;;3.50;1.60;;;;;;;12.30;49.96;102166.31;4952029;28;97136;-84
2022/05/01 02:58:29;;;;;;;2.37;1.47;;;;;;;12.31;49.96;102142.25;4950413;28;96914;-84
2022/05/01 03:00:56;;;;;;;1.40;1.30;;;;;;;12.29;50.02;102155.75;4975260;28;97043;-84
2022/05/01 03:03:23;;;;;;;1.40;1.30;;;;;;;12.31;50.01;102145.00;4952182;28;96644;-84
2022/05/01 03:05:51;;;;;;;7.23;1.50;;;;;;;12.31;50.05;102154.06;4949524;28;96732;-85
2022/05/01 03:08:16;;;;;;;1.00;1.00;;;;;;;12.28;50.19;102141.19;4887904;28;97224;-84
2022/05/01 03:10:41;;;;;;;1.67;1.30;;;;;;;12.29;50.00;102150.22;4953883;28;99350;-85
2022/05/01 03:13:08;;;;;;;1.30;1.20;;;;;;;12.29;50.15;102147.47;4946318;28;97717;-84
2022/05/01 03:15:33;;;;;;;1.37;0.87;;;;;;;12.28;50.17;102140.41;4953383;28;96795;-84
2022/05/01 03:23:26;;;;;;;1.43;1.27;;;;;;;12.21;50.34;102135.25;4889255;28;97893;-84
2022/05/01 03:25:52;;;;;;;6.30;1.83;;;;;;;12.18;50.57;102136.19;4953741;28;96313;-84
2022/05/01 03:28:17;;;;;;;2.70;1.70;;;;;;;12.17;50.34;102137.41;4953551;28;96707;-86
2022/05/01 03:30:42;;;;;;;1.40;1.30;;;;;;;12.15;50.42;102137.88;4954306;28;98471;-84
2022/05/01 03:33:08;;;;;;;2.37;1.50;;;;;;;12.13;50.57;102125.78;4952489;28;98514;-84
2022/05/01 03:35:37;;;;;;;2.33;1.37;;;;;;;12.06;50.54;102135.16;4889010;28;97289;-83
2022/05/01 03:38:03;;;;;;;2.07;1.77;;;;;;;12.11;50.56;102131.00;4958979;28;96808;-83
2022/05/01 03:40:29;;;;;;;1.10;1.00;;;;;;;12.04;50.63;102135.63;4967017;28;99326;-84
2022/05/01 03:42:54;;;;;;;1.40;1.30;;;;;;;12.05;50.44;102128.13;4955370;28;98357;-83
2022/05/01 03:45:20;;;;;;;4.37;1.73;;;;;;;12.01;50.75;102131.03;4955997;28;97175;-83
2022/05/01 03:47:46;;;;;;;5.33;1.70;;;;;;;11.98;50.84;102120.94;4891798;28;96853;-83
2022/05/01 03:50:11;;;;;;;3.27;1.80;;;;;;;11.98;50.98;102134.72;4890291;28;97924;-83
2022/05/01 03:52:37;;;;;;;6.20;1.83;;;;;;;12.01;50.84;102125.50;4891033;28;96550;-83
2022/05/01 03:55:03;;;;;;;1.67;1.20;;;;;;;12.00;50.81;102137.78;4954415;28;97217;-83
2022/05/01 03:57:29;;;;;;;2.03;1.77;;;;;;;12.02;50.94;102131.81;4946954;28;96969;-84
2022/05/01 03:59:54;;;;;;;2.57;1.70;;;;;;;11.99;51.23;102149.31;4949085;28;97648;-84
2022/05/01 04:02:20;;;;;;;4.97;1.40;;;;;;;12.00;50.96;102134.25;4959640;28;96854;-84
2022/05/01 04:04:47;;;;;;;2.60;1.53;;;;;;;11.91;51.01;102117.75;4955514;28;96946;-83
2022/05/01 04:07:13;;;;;;;1.33;1.23;;;;;;;11.90;51.14;102130.75;4954807;28;96908;-84
2022/05/01 04:09:38;;;;;;;2.40;1.43;;;;;;;11.86;51.33;102140.47;4890440;28;98466;-83
2022/05/01 04:12:07;;;;;;;1.40;1.30;;;;;;;11.82;51.59;102140.59;4971717;28;97368;-83
2022/05/01 04:14:33;;;;;;;1.57;1.47;;;;;;;11.82;51.48;102157.16;4956754;28;96948;-83
2022/05/01 04:16:59;;;;;;;2.03;1.20;;;;;;;11.81;51.52;102136.34;4972495;28;97059;-84
2022/05/01 04:19:25;;;;;;;2.00;1.10;;;;;;;11.80;51.59;102134.78;4955276;28;102061;-83
2022/05/01 04:21:50;;;;;;;1.43;1.33;;;;;;;11.75;51.90;102135.41;4954987;28;98321;-83
2022/05/01 04:24:16;;;;;;;2.70;1.50;;;;;;;11.73;51.83;102167.47;4954765;28;96750;-83
2022/05/01 04:26:41;;;;;;;1.83;1.37;;;;;;;11.77;51.85;102154.25;4961615;28;96970;-83
2022/05/01 04:31:50;;;;;;;2.83;1.50;;;;;;;11.75;51.82;102143.69;4892387;28;100830;-83
2022/05/01 04:34:16;;;;;;;1.50;1.20;;;;;;;11.78;52.01;102147.50;4952780;28;96790;-83
2022/05/01 04:36:43;;;;;;;2.50;1.17;;;;;;;11.81;51.84;102146.59;4971726;28;97098;-83
2022/05/01 04:39:08;;;;;;;2.80;1.37;;;;;;;11.86;51.67;102148.72;4972231;28;97970;-83
2022/05/01 04:41:34;;;;;;;3.43;1.80;;;;;;;11.87;51.94;102151.00;4890431;28;99752;-83
2022/05/01 04:43:59;;;;;;;1.70;1.60;;;;;;;11.90;51.99;102141.06;4953982;28;96958;-84
2022/05/01 04:46:25;;;;;;;1.30;1.20;;;;;;;11.94;51.93;102139.66;4890693;28;96998;-85
2022/05/01 04:48:50;;;;;;;2.73;1.53;;;;;;;11.95;52.01;102146.69;4954877;28;98790;-83
2022/05/01 04:51:16;;;;;;;2.83;1.90;;;;;;;11.94;51.87;102145.19;4889849;28;96923;-83
2022/05/01 04:53:41;;;;;;;3.93;1.47;;;;;;;11.94;51.86;102145.19;4955042;28;97166;-83
2022/05/01 04:58:50;;;;;;;3.63;1.40;;;;;;;11.92;51.98;102153.16;4884393;28;97495;-83
2022/05/01 05:01:19;;;;;;;4.17;1.23;;;;;;;11.94;52.07;102144.41;4975399;28;99711;-84
2022/05/01 05:03:45;;;;;;;2.10;1.43;;;;;;;11.95;52.19;102141.16;4953999;28;96752;-84
2022/05/01 05:06:10;;;;;;;1.90;1.80;;;;;;;11.95;51.98;102146.69;4960149;28;97264;-84
2022/05/01 05:11:20;;;;;;;1.43;1.30;;;;;;;11.90;52.33;102143.81;4888384;28;101193;-84
2022/05/01 05:13:45;;;;;;;4.67;1.60;;;;;;;11.92;52.33;102144.09;4969457;28;96768;-84
2022/05/01 05:16:13;;;;;;;2.13;1.17;;;;;;;11.92;52.17;102164.19;4954209;28;97043;-85
2022/05/01 05:18:40;;;;;;;1.50;1.20;;;;;;;11.87;52.42;102153.78;4954538;28;98463;-84
2022/05/01 05:21:07;;;;;;;2.80;1.57;;;;;;;11.91;52.20;102184.72;4955890;28;97396;-84
2022/05/01 05:23:32;;;;;;;4.77;1.50;;;;;;;11.93;52.37;102156.66;4964356;28;97321;-85
2022/05/01 05:25:58;;;;;;;2.17;1.40;;;;;;;11.99;52.37;102174.13;4891097;28;97054;-84
2022/05/01 05:28:23;;;;;;;1.40;1.30;;;;;;;12.02;52.17;102162.13;4944219;28;97684;-85
2022/05/01 05:30:49;;;;;;;3.60;1.77;;;;;;;12.09;52.38;102164.56;4962729;28;98256;-84
2022/05/01 05:33:15;;;;;;;3.17;1.60;;;;;;;12.18;52.31;102163.78;4953630;28;96649;-84
2022/05/01 05:35:41;;;;;;;5.17;1.60;;;;;;;12.22;52.29;102169.88;4953934;28;96880;-84
2022/05/01 05:38:06;;;;;;;3.17;1.70;;;;;;;12.27;52.09;102164.50;4956982;28;100551;-83
2022/05/01 05:40:32;;;;;;;1.40;1.30;;;;;;;12.33;52.11;102159.88;4947922;28;99102;-83
2022/05/01 05:42:57;;;;;;;5.03;1.20;;;;;;;12.33;52.11;102159.88;4954607;28;98242;-84
2022/05/01 05:45:23;;;;;;;2.53;1.30;;;;;;;12.37;51.94;102165.22;4966799;28;96847;-84
2022/05/01 05:47:48;;;;;;;5.27;1.73;;;;;;;12.41;52.25;102160.28;4970520;28;99555;-85
2022/05/01 05:50:16;;;;;;;3.00;1.63;;;;;;;12.48;52.10;102170.97;4887117;28;97192;-83
2022/05/01 05:52:42;;;;;;;3.33;1.90;;;;;;;12.57;52.00;102160.66;4968759;28;97470;-83
2022/05/01 05:55:08;;;;;;;1.03;0.90;;;;;;;12.60;51.86;102158.97;4949715;28;97429;-83
2022/05/01 05:57:34;;;;;;;1.73;1.23;;;;;;;12.65;51.79;102161.06;4888724;28;97450;-82
2022/05/01 06:00:00;;;;;;;2.93;1.20;;;;;;;12.72;51.75;102155.19;4888665;28;97025;-84
2022/05/01 06:02:25;;;;;;;3.20;1.30;;;;;;;12.75;51.53;102162.53;4889037;28;96971;-83
2022/05/01 06:04:51;;;;;;;2.60;1.30;;;;;;;12.79;51.64;102158.38;4953500;28;97287;-83
2022/05/01 06:07:16;;;;;;;2.50;1.50;;;;;;;12.90;51.53;102170.88;4952452;28;100764;-83
2022/05/01 06:09:42;;;;;;;1.47;1.20;;;;;;;12.95;51.37;102164.72;4970602;28;99057;-84
2022/05/01 06:12:09;;;;;;;3.00;1.50;;;;;;;13.01;51.29;102169.09;4955097;28;96710;-84
2022/05/01 06:14:35;;;;;;;1.10;1.00;;;;;;;12.99;51.50;102182.63;4948715;28;96943;-84
2022/05/01 06:17:01;;;;;;;2.77;1.30;;;;;;;12.99;51.06;102165.28;4885438;28;97049;-83
2022/05/01 06:19:26;;;;;;;2.00;1.43;;;;;;;12.98;51.25;102186.63;4888039;28;98638;-84
2022/05/01 06:21:51;;;;;;;1.00;0.90;;;;;;;12.98;51.42;102172.81;4889309;28;97047;-84
2022/05/01 06:24:17;;;;;;;4.13;1.07;;;;;;;13.09;51.26;102170.28;4953672;28;96858;-84
2022/05/01 06:26:42;;;;;;;1.20;1.10;;;;;;;13.19;51.11;102162.72;4891092;28;96687;-83
2022/05/01 06:29:08;;;;;;;5.50;1.40;;;;;;;13.32;50.97;102180.53;4954396;28;98554;-83
2022/05/01 06:31:35;;;;;;;1.10;1.10;;;;;;;13.44;50.86;102171.22;4969648;28;97326;-83
2022/05/01 06:34:00;;;;;;;1.43;1.20;;;;;;;13.47;50.61;102186.09;4953024;28;96962;-84
2022/05/01 06:36:26;;;;;;;1.30;1.13;;;;;;;13.58;50.60;102182.78;4888627;28;96925;-83
2022/05/01 06:38:51;;;;;;;1.93;1.10;;;;;;;13.69;50.49;102160.84;4955363;28;98630;-83
2022/05/01 06:41:17;;;;;;;2.10;1.20;;;;;;;13.88;50.27;102176.00;4888909;28;97057;-84
2022/05/01 06:43:43;;;;;;;1.90;1.20;;;;;;;13.95;49.99;102173.63;4888210;28;96885;-83
2022/05/01 06:46:08;;;;;;;1.20;1.10;;;;;;;14.04;49.76;102181.78;4890932;28;96934;-85
2022/05/01 06:48:33;;;;;;;1.83;1.10;;;;;;;14.00;49.62;102169.41;4953290;28;98499;-84
2022/05/01 06:50:59;;;;;;;2.40;0.97;;;;;;;14.07;49.59;102166.25;4952855;28;97444;-84
2022/05/01 06:53:24;;;;;;;1.43;0.83;;;;;;;14.11;49.32;102175.09;4961197;28;97363;-83
2022/05/01 06:55:50;;;;;;;1.43;0.80;;;;;;;14.24;49.27;102162.47;4969515;28;97867;-84
2022/05/01 06:58:16;;;;;;;1.20;0.67;;;;;;;14.29;49.21;102177.69;4946270;28;97340;-83
2022/05/01 07:00:41;;;;;;;0.70;0.70;;;;;;;14.41;49.32;102167.53;4968615;28;97120;-84
2022/05/01 07:03:07;;;;;;;1.93;1.10;;;;;;;14.53;49.11;102160.91;4890669;28;97296;-84
2022/05/01 07:05:32;;;;;;;3.37;1.30;;;;;;;14.61;49.02;102170.34;4965490;28;99490;-83
2022/05/01 07:07:57;;;;;;;3.57;1.03;;;;;;;14.72;48.94;102176.03;4888579;28;97103;-84
2022/05/01 07:10:23;;;;;;;4.47;1.00;;;;;;;14.69;48.71;102213.78;4887929;28;97067;-85
2022/05/01 07:12:49;;;;;;;1.40;1.20;;;;;;;14.55;48.94;102170.25;4958930;28;97260;-83
2022/05/01 07:15:14;;;;;;;2.20;1.30;;;;;;;14.55;48.91;102164.72;4955912;28;99700;-84
2022/05/01 07:17:41;;;;;;;2.63;1.20;;;;;;;14.64;48.81;102188.75;4955247;28;98250;-84
2022/05/01 07:20:07;;;;;;;2.30;1.30;;;;;;;14.61;48.90;102187.69;4956594;28;96975;-84
2022/05/01 07:22:33;;;;;;;1.33;0.90;;;;;;;14.65;48.94;102168.13;4954458;28;97077;-84
2022/05/01 07:24:58;;;;;;;4.67;1.10;;;;;;;14.82;48.90;102178.19;4956220;28;97968;-84
2022/05/01 07:27:24;;;;;;;2.07;1.30;;;;;;;14.84;48.64;102161.84;4941477;28;99280;-84
2022/05/01 07:29:49;;;;;;;1.10;1.00;;;;;;;14.96;48.53;102168.28;4956056;28;96904;-84
2022/05/01 07:32:15;;;;;;;1.70;1.13;;;;;;;15.12;48.35;102178.00;4892323;28;97020;-84
2022/05/01 07:34:41;;;;;;;2.00;0.90;;;;;;;15.19;48.04;102170.06;4890054;28;97644;-83
2022/05/01 07:37:07;;;;;;;0.93;0.93;;;;;;;15.24;47.90;102172.13;4957381;28;98555;-84
2022/05/01 07:39:32;;;;;;;1.10;0.97;;;;;;;15.27;47.62;102173.91;4972997;28;97264;-85
2022/05/01 07:41:58;;;;;;;2.40;0.93;;;;;;;15.24;47.55;102191.53;4962112;28;96962;-84
2022/05/01 07:44:24;;;;;;;3.20;1.13;;;;;;;15.19;47.56;102206.09;4956621;28;99651;-83
2022/05/01 07:46:51;;;;;;;1.00;1.00;;;;;;;15.20;47.79;102163.25;4972428;28;97508;-84
2022/05/01 07:49:16;;;;;;;1.60;0.63;;;;;;;15.32;47.53;102166.91;4954460;28;97263;-83
2022/05/01 07:51:42;;;;;;;1.00;0.70;;;;;;;15.57;47.67;102163.41;4972373;28;97017;-83
2022/05/01 07:54:07;;;;;;;0.67;0.67;;;;;;;15.80;47.46;102173.44;4890231;28;96851;-86
2022/05/01 07:56:34;;;;;;;0.80;0.70;;;;;;;15.88;46.98;102180.06;4968087;28;98605;-84
2022/05/01 07:59:00;;;;;;;1.40;0.80;;;;;;;15.89;46.87;102169.72;4888253;28;96997;-84
2022/05/01 08:01:25;;;;;;;2.00;0.80;;;;;;;16.13;46.82;102168.16;4955249;28;97461;-83
2022/05/01 08:06:35;;;;;;;1.60;0.93;;;;;;;16.26;46.49;102165.72;4908385;28;96491;-85
2022/05/01 08:09:01;;;;;;;0.60;0.53;;;;;;;16.42;46.05;102181.72;4910477;28;96824;-84
2022/05/01 08:11:27;;;;;;;1.33;0.80;;;;;;;16.36;45.51;102164.28;4975223;28;96703;-84
2022/05/01 08:13:52;;;;;;;0.80;0.50;;;;;;;16.49;45.65;102174.94;4973809;28;99367;-84
2022/05/01 08:16:18;;;;;;;1.07;0.70;;;;;;;16.62;45.24;102169.00;4980629;28;96878;-84
2022/05/01 08:21:31;;;;;;;1.30;0.73;;;;;;;16.46;45.01;102175.97;4907640;28;97207;-84
2022/05/01 08:23:57;;;;;;;0.80;0.60;;;;;;;16.71;44.43;102177.13;4903717;28;100739;-85
2022/05/01 08:26:23;;;;;;;2.10;0.93;;;;;;;16.85;43.87;102173.41;4976575;28;98484;-85
2022/05/01 08:28:52;;;;;;;1.77;0.57;;;;;;;17.05;43.77;102181.56;4907047;28;96536;-84
2022/05/01 08:31:18;;;;;;;0.80;0.60;;;;;;;17.23;43.62;102181.88;4989707;28;96876;-83
2022/05/01 08:33:43;;;;;;;0.80;0.40;;;;;;;17.19;42.54;102177.81;4988737;28;98430;-86
2022/05/01 08:36:08;;;;;;;0.80;0.50;;;;;;;17.25;42.65;102189.72;4909801;28;98146;-83
2022/05/01 08:38:36;;;;;;;2.20;0.67;;;;;;;17.29;42.53;102179.13;4993449;28;97159;-85
2022/05/01 08:41:02;;;;;;;0.57;0.40;;;;;;;17.34;42.17;102169.25;4991331;28;96975;-84
2022/05/01 08:43:27;;;;;;;0.93;0.60;;;;;;;17.38;42.10;102169.78;4988468;28;97122;-85
2022/05/01 08:45:53;;;;;;;0.63;0.53;;;;;;;17.43;41.89;102172.56;4968418;28;97303;-84
2022/05/01 08:48:39;;;;;;;0.97;0.50;;;;;;;17.38;36.96;102178.88;4901377;28;98654;-84
2022/05/01 08:51:05;;;;;;;0.60;0.60;;;;;;;17.29;41.55;102178.34;4902075;28;96423;-84
2022/05/01 08:53:31;;;;;;;1.70;0.50;;;;;;;17.35;41.54;102179.88;4971753;28;98754;-85
2022/05/01 08:55:58;;;;;;;0.70;0.57;;;;;;;17.48;41.18;102176.63;4910337;28;96724;-84
2022/05/01 08:58:26;;;;;;;0.67;0.63;;;;;;;17.59;41.63;102188.56;4992419;28;97104;-85
2022/05/01 09:00:52;;;;;;;0.90;0.50;;;;;;;17.84;41.44;102172.91;4971843;28;97307;-84
2022/05/01 09:03:18;;;;;;;0.70;0.60;;;;;;;18.10;41.45;102172.63;4971206;28;98656;-85
2022/05/01 09:05:44;;;;;;;1.40;0.70;;;;;;;18.24;41.38;102182.75;4907799;28;97682;-85
2022/05/01 09:08:10;;;;;;;2.20;0.60;;;;;;;18.32;40.85;102173.38;4904803;28;96573;-84
2022/05/01 09:10:36;;;;;;;0.60;0.50;;;;;;;18.28;40.61;102164.47;4965188;28;97066;-83
2022/05/01 09:13:02;;;;;;;3.23;0.80;;;;;;;18.40;40.62;102165.22;4987656;28;99276;-84
2022/05/01 09:15:35;;;;;;;1.40;0.70;;;;;;;18.58;39.24;102173.84;4905923;28;97593;-83
2022/05/01 09:18:06;;;;;;;1.27;0.53;;;;;;;18.71;39.35;102164.91;4982867;28;96869;-84
2022/05/01 09:20:32;;;;;;;0.67;0.67;;;;;;;18.86;39.38;102159.00;4972513;28;96999;-85
2022/05/01 09:22:59;;;;;;;0.50;0.40;;;;;;;18.80;38.67;102181.38;4911913;28;97656;-85
2022/05/01 09:25:27;;;;;;;0.63;0.60;;;;;;;18.94;38.96;102157.97;4912723;28;96541;-84
2022/05/01 09:27:57;;;;;;;0.73;0.73;;;;;;;19.07;38.13;102160.16;4910718;28;96513;-85
2022/05/01 09:30:35;;;;;;;0.57;0.47;;;;;;;19.09;36.71;102155.59;4905342;28;96607;-84
2022/05/01 09:33:02;;;;;;;0.73;0.60;;;;;;;19.32;38.59;102156.25;4967432;28;100711;-84
2022/05/01 09:35:34;;;;;;;1.83;0.77;;;;;;;19.61;37.57;102160.38;4974370;28;98046;-84
2022/05/01 09:38:14;;;;;;;0.90;0.70;;;;;;;19.46;36.88;102160.00;4964166;28;96421;-85
2022/05/01 09:40:39;;;;;;;0.90;0.83;;;;;;;19.16;37.04;102152.28;4986223;28;96962;-84
2022/05/01 09:43:05;;;;;;;1.67;0.87;;;;;;;19.12;37.35;102165.75;4905023;28;96729;-84
2022/05/01 09:45:31;;;;;;;0.90;0.90;;;;;;;19.16;37.16;102160.63;4964321;28;98684;-85
2022/05/01 09:47:57;;;;;;;1.73;0.77;;;;;;;19.20;37.11;102155.53;4984942;28;97158;-84
2022/05/01 09:50:41;;;;;;;0.80;0.67;;;;;;;19.34;35.19;102164.84;4982312;28;97208;-84
2022/05/01 09:53:06;;;;;;;0.90;0.57;;;;;;;19.14;36.56;102157.59;4975978;28;96685;-85
2022/05/01 09:55:32;;;;;;;0.90;0.80;;;;;;;19.21;36.82;102147.94;4983477;28;98399;-85
2022/05/01 09:58:11;;;;;;;0.77;0.77;;;;;;;19.20;35.28;102154.78;4903130;28;96938;-86
2022/05/01 10:00:41;;;;;;;1.20;0.80;;;;;;;19.15;35.95;102150.78;4958218;28;96948;-87
2022/05/01 10:03:27;;;;;;;1.30;0.70;;;;;;;19.17;34.82;102145.44;4894704;28;97336;-86
2022/05/01 10:05:54;;;;;;;1.53;0.70;;;;;;;19.28;36.80;102150.94;4967693;28;100069;-85
2022/05/01 10:08:21;;;;;;;0.80;0.77;;;;;;;19.34;36.61;102170.44;4956082;28;96976;-86
2022/05/01 10:10:49;;;;;;;1.20;0.90;;;;;;;19.32;36.52;102148.63;4890711;28;97311;-87
2022/05/01 10:13:16;;;;;;;6.23;1.13;;;;;;;19.38;36.64;102140.25;4957514;28;98640;-85
2022/05/01 10:15:41;;;;;;;0.60;0.50;;;;;;;19.52;36.43;102136.34;4891200;28;96523;-87
2022/05/01 10:18:07;;;;;;;0.70;0.70;;;;;;;19.63;36.51;102147.44;4898364;28;97097;-86
2022/05/01 10:20:34;;;;;;;0.80;0.53;;;;;;;19.67;36.16;102169.47;4959631;28;96709;-85
2022/05/01 10:23:02;;;;;;;0.90;0.73;;;;;;;19.72;36.28;102172.25;4957067;28;97032;-84
2022/05/01 10:25:32;;;;;;;0.97;0.60;;;;;;;19.84;35.88;102131.75;4966630;28;98415;-86
2022/05/01 10:28:26;;;;;;;0.90;0.60;;;;;;;19.98;34.54;102127.81;4951361;28;96919;-86
2022/05/01 10:34:21;;;;;;;1.20;0.73;;;;;;;20.36;34.10;102133.53;4889828;28;100407;-85
2022/05/01 10:37:14;;;;;;;1.17;0.53;;;;;;;20.39;34.14;102133.28;4888010;28;97288;-85
2022/05/01 10:39:42;;;;;;;1.07;0.60;;;;;;;20.45;35.47;102125.56;4967608;28;96926;-84
2022/05/01 10:42:08;;;;;;;1.00;0.67;;;;;;;20.62;35.40;102128.91;4971477;28;96950;-85
2022/05/01 10:44:36;;;;;;;1.07;0.77;;;;;;;20.84;34.96;102127.88;4949997;28;100521;-86
2022/05/01 10:47:16;;;;;;;0.70;0.70;;;;;;;21.19;33.38;102118.50;4892956;28;100586;-84
2022/05/01 10:49:47;;;;;;;0.80;0.73;;;;;;;21.48;33.82;102112.72;4977180;28;97164;-83
2022/05/01 10:52:22;;;;;;;0.80;0.57;;;;;;;21.42;32.96;102116.91;4967020;28;96610;-85
2022/05/01 10:54:55;;;;;;;0.97;0.73;;;;;;;21.29;33.50;102114.06;4953580;28;102796;-84
2022/05/01 10:57:23;;;;;;;0.87;0.60;;;;;;;21.33;34.11;102112.44;4959265;28;99729;-85
2022/05/01 10:59:50;;;;;;;0.70;0.70;;;;;;;21.41;33.99;102109.78;4957163;28;97049;-85
2022/05/01 11:02:51;;;;;;;0.73;0.70;;;;;;;21.63;32.10;102110.19;4974992;28;97029;-85
2022/05/01 11:05:55;;;;;;;0.67;0.57;;;;;;;21.91;32.19;102101.31;4910104;28;100987;-84
2022/05/01 11:08:29;;;;;;;1.53;0.90;;;;;;;22.34;33.42;102106.63;4954748;28;100975;-84
2022/05/01 11:10:58;;;;;;;1.30;0.70;;;;;;;22.36;33.09;102101.22;4969037;28;96785;-85
2022/05/01 11:13:35;;;;;;;0.90;0.80;;;;;;;22.61;32.45;102096.91;4957948;28;97242;-84
2022/05/01 11:16:01;;;;;;;2.43;0.97;;;;;;;22.37;32.48;102097.88;4889313;28;100979;-84
2022/05/01 11:18:33;;;;;;;2.10;1.27;;;;;;;22.03;32.60;102099.81;4963983;28;96808;-85
2022/05/01 11:21:20;;;;;;;1.10;0.87;;;;;;;21.94;32.13;102096.69;4896762;28;96771;-84
2022/05/01 11:23:46;;;;;;;1.97;0.80;;;;;;;22.27;32.73;102102.44;4977953;28;96908;-84
2022/05/01 11:26:18;;;;;;;0.70;0.70;;;;;;;22.20;32.24;102111.47;4974920;28;99207;-86
2022/05/01 11:28:52;;;;;;;0.90;0.90;;;;;;;21.90;32.18;102097.00;4900801;28;97784;-84
2022/05/01 11:31:39;;;;;;;1.00;0.70;;;;;;;21.82;31.63;102089.75;4971107;28;96817;-84
2022/05/01 11:34:24;;;;;;;3.33;1.07;;;;;;;21.65;31.71;102090.78;4971505;28;96856;-84
2022/05/01 11:36:53;;;;;;;0.83;0.77;;;;;;;21.47;32.63;102110.47;4945134;28;103049;-83
2022/05/01 11:39:20;;;;;;;0.90;0.80;;;;;;;21.36;32.71;102102.25;4891863;28;101979;-84
2022/05/01 11:41:51;;;;;;;0.77;0.77;;;;;;;21.41;33.14;102101.38;4961458;28;96816;-84
2022/05/01 11:44:23;;;;;;;1.27;0.97;;;;;;;21.52;31.78;102121.56;4960451;28;97086;-84
2022/05/01 11:46:49;;;;;;;0.93;0.90;;;;;;;21.51;33.06;102099.69;4960085;28;97904;-83
2022/05/01 11:49:14;;;;;;;1.27;1.10;;;;;;;21.39;32.51;102103.97;4975610;28;98607;-84
2022/05/01 11:51:40;;;;;;;1.10;1.10;;;;;;;21.11;32.82;102087.59;4979576;28;96816;-83
2022/05/01 11:54:08;;;;;;;0.67;0.63;;;;;;;21.16;33.00;102091.59;4898437;28;96852;-83
2022/05/01 12:04:46;;;;;;;1.07;0.97;;;;;;;20.50;32.93;102076.44;4889962;28;97121;-86